Latest Weather Observations for Cabramurra

IDN60801

Issued at 7:05 pm EST Thursday 28 August 2014 (issued every 30 minutes, with the page automatically refreshed every 10 minutes)

About weather observations | Map of weather stations | Latest weather observations for NSW | Other Formats
Station Details ID: 072161 Name: CABRAMURRA SMHEA AWS Lat: -35.94 Lon: 148.38 Height: 1482.4 m
Data from the previous 72 hours. | See also: Recent months at Cabramurra
Date/Time
EST
Temp
°C
App
Temp
°C
Dew
Point
Rel
Hum
%
Delta-T
°C
Wind Press
QNH
hPa
Press
MSL
hPa
Rain
since 9 am
mm
Dir
 
Spd
km/h
Gust
km/h
Spd
kts
Gust
kts
28/07:00pm 4.1 0.8 -1.5 67 2.2 NW 6 9 3 5 - - 0.0
28/06:30pm 5.2 2.0 -0.8 65 2.5 ESE 6 9 3 5 - - 0.0
28/06:00pm 5.5 2.3 -0.8 64 2.6 SSE 6 7 3 4 - - 0.0
28/05:30pm 6.6 3.1 -1.1 58 3.2 WNW 7 13 4 7 - - 0.0
28/05:00pm 7.5 3.7 -0.5 57 3.4 WNW 9 15 5 8 - - 0.0
28/04:30pm 8.2 3.7 0.0 56 3.6 W 13 19 7 10 - - 0.0
28/04:00pm 8.7 4.3 0.2 55 3.7 W 13 20 7 11 - - 0.0
28/03:30pm 9.1 4.8 0.8 56 3.7 WNW 13 19 7 10 - - 0.0
28/03:00pm 9.9 5.2 0.8 53 4.1 WNW 15 19 8 10 - - 0.0
28/02:30pm 9.3 4.5 -5.7 34 5.8 ENE 11 17 6 9 - - 0.0
28/02:00pm 8.8 3.5 -7.8 30 6.0 E 13 19 7 10 - - 0.0
28/01:30pm 8.9 4.5 -5.7 35 5.6 ENE 9 15 5 8 - - 0.0
28/01:00pm 8.3 4.1 -3.8 42 4.8 ENE 9 15 5 8 - - 0.0
28/12:30pm 8.6 4.8 -0.9 51 4.1 NE 9 17 5 9 - - 0.0
28/12:00pm 8.1 4.3 -0.6 54 3.7 NNE 9 15 5 8 - - 0.0
28/11:30am 6.7 1.5 -3.0 50 3.9 E 15 20 8 11 - - 0.0
28/11:00am 6.1 1.2 -3.0 52 3.6 E 13 22 7 12 - - 0.0
28/10:30am 5.8 -0.3 -2.3 56 3.2 E 20 28 11 15 - - 0.0
28/10:00am 5.2 -1.0 -3.3 54 3.3 E 20 30 11 16 - - 0.0
28/09:30am 3.7 -3.7 -3.6 59 2.8 E 26 33 14 18 - - 0.0
28/09:00am 2.8 -4.2 -3.1 65 2.2 ESE 24 33 13 18 - - 0.0
28/08:30am 2.0 -5.6 -2.3 73 1.7 ESE 28 39 15 21 - - 0.0
28/08:00am 1.4 -7.0 -2.5 75 1.6 ESE 32 41 17 22 - - 0.0
28/07:30am 0.8 -7.5 -1.8 83 1.0 ESE 32 43 17 23 - - 0.0
28/07:00am 0.4 -7.8 -1.0 90 0.6 ESE 32 41 17 22 - - 0.0
28/06:30am -0.1 -8.0 -1.2 92 0.4 ESE 30 44 16 24 - - 0.0
28/06:00am 0.2 -5.7 -0.9 92 0.4 ESE 20 32 11 17 - - 0.0
28/05:30am -0.1 -6.0 -0.5 97 0.2 SSE 20 26 11 14 - - 0.0
28/05:00am -0.5 -3.9 -0.6 99 0.0 ESE 7 17 4 9 - - 0.0
28/04:30am -0.3 -3.7 -0.7 97 0.1 SE 7 13 4 7 - - 0.0
28/04:00am -0.4 -3.8 -0.7 98 0.1 S 7 17 4 9 - - 0.0
28/03:30am -0.1 -5.4 -0.4 98 0.1 SE 17 30 9 16 - - 0.0
28/03:00am 0.5 -5.3 -0.2 95 0.3 SE 20 35 11 19 - - 0.0
28/02:30am 0.4 -4.9 -0.3 95 0.3 ESE 17 26 9 14 - - 0.0
28/02:00am 0.3 -5.0 -0.3 96 0.2 SSE 17 24 9 13 - - 0.0
28/01:30am 0.6 -6.0 -0.1 95 0.3 SE 24 39 13 21 - - 0.0
28/01:00am 0.8 -6.5 0.2 96 0.2 E 28 37 15 20 - - 0.0
28/12:30am 1.2 -5.4 -0.3 90 0.6 ESE 24 33 13 18 - - 0.0
28/12:00am 1.5 -5.0 0.2 91 0.5 E 24 33 13 18 - - 0.0
 
Date/Time
EST
Temp
°C
App
Temp
°C
Dew
Point
Rel
Hum
%
Delta-T
°C
Wind Press
QNH
hPa
Press
MSL
hPa
Rain
since 9 am
mm
Dir
 
Spd
km/h
Gust
km/h
Spd
kts
Gust
kts
27/11:30pm 1.7 -5.2 0.2 90 0.6 E 26 35 14 19 - - 0.0
27/11:00pm 1.7 -5.5 0.5 92 0.5 E 28 35 15 19 - - 0.0
27/10:30pm 1.8 -5.4 0.6 92 0.5 E 28 35 15 19 - - 0.0
27/10:00pm 1.8 -6.1 1.1 95 0.3 E 32 39 17 21 - - 0.0
27/09:30pm 2.3 -4.5 0.8 90 0.6 ESE 26 33 14 18 - - 0.0
27/09:00pm 2.2 -3.2 1.0 92 0.5 ESE 19 28 10 15 - - 0.0
27/08:30pm 2.1 -3.5 1.5 96 0.3 ESE 20 26 11 14 - - 0.0
27/08:00pm 2.2 -3.2 1.5 95 0.3 ESE 19 28 10 15 - - 0.0
27/07:30pm 2.6 -2.9 0.5 86 0.9 ESE 19 28 10 15 - - 0.0
27/07:00pm 3.2 -2.2 -1.7 70 1.9 SE 17 24 9 13 - - 0.0
27/06:30pm 3.4 -1.6 -1.3 71 1.9 ESE 15 20 8 11 - - 0.0
27/06:00pm 3.9 -0.8 -1.9 66 2.3 SE 13 19 7 10 - - 0.0
27/05:30pm 4.5 -0.9 -1.7 64 2.5 ESE 17 30 9 16 - - 0.0
27/05:00pm 5.1 0.4 -1.6 62 2.7 ESE 13 24 7 13 - - 0.0
27/04:30pm 5.6 0.2 -1.5 60 2.9 E 17 28 9 15 - - 0.0
27/04:00pm 5.9 0.5 -1.7 58 3.1 E 17 30 9 16 - - 0.0
27/03:30pm 6.4 1.0 -1.2 58 3.1 E 17 30 9 16 - - 0.0
27/03:00pm 6.7 0.8 -1.0 58 3.2 E 20 30 11 16 - - 0.0
27/02:30pm 5.7 0.2 -2.4 56 3.2 E 17 30 9 16 - - 0.0
27/02:00pm 5.9 -0.1 -1.5 59 3.0 ESE 20 28 11 15 - - 0.0
27/01:30pm 6.1 0.2 -1.1 60 3.0 E 20 33 11 18 - - 0.0
27/01:00pm 6.4 0.6 -0.1 63 2.8 E 20 30 11 16 - - 0.0
27/12:30pm 5.5 -0.8 -1.0 63 2.7 E 22 35 12 19 - - 0.0
27/12:00pm 5.3 -0.5 -0.1 68 2.3 E 20 32 11 17 - - 0.0
27/11:30am 5.1 -2.2 0.1 70 2.1 E 28 39 15 21 - - 0.0
27/11:00am 4.7 -1.8 0.5 74 1.8 E 24 41 13 22 - - 0.0
27/10:42am 4.1 -3.2 -0.3 73 1.8 E 28 50 15 27 - - 0.0
27/10:30am 4.1 -3.5 0.4 77 1.6 E 30 43 16 23 - - 0.0
27/10:00am 3.2 -4.1 -0.3 78 1.4 E 28 46 15 25 - - 0.0
27/09:32am 3.1 -5.6 -0.4 78 1.4 E 35 54 19 29 - - 0.0
27/09:30am 2.9 -5.8 -0.7 77 1.5 E 35 50 19 27 - - 0.0
27/09:00am 2.4 -5.9 -0.2 83 1.1 E 33 52 18 28 - - 0.0
27/08:30am 1.9 -7.5 -0.2 86 0.9 E 39 54 21 29 - - 0.0
27/08:00am 1.3 -8.2 -0.5 88 0.7 E 39 54 21 29 - - 0.0
27/07:55am 1.2 -8.6 -0.4 89 0.6 E 41 59 22 32 - - 0.0
27/07:30am 0.9 -9.5 -0.2 92 0.4 E 44 59 24 32 - - 0.0
27/07:00am 0.9 -8.9 -0.2 92 0.4 E 41 57 22 31 - - 0.0
27/06:30am 0.9 -9.5 -0.1 93 0.4 E 44 56 24 30 - - 0.0
27/06:00am 0.9 -9.3 -0.1 93 0.4 E 43 54 23 29 - - 0.0
27/05:30am 1.0 -8.4 0.0 93 0.4 E 39 50 21 27 - - 0.0
27/05:00am 1.3 -8.8 0.4 94 0.4 E 43 57 23 31 - - 0.0
27/04:35am 1.6 -7.7 0.3 91 0.5 ESE 39 57 21 31 - - 0.0
27/04:30am 1.5 -8.2 0.2 91 0.5 E 41 57 22 31 - - 0.0
27/04:00am 1.7 -7.5 1.4 98 0.1 E 39 57 21 31 - - 0.0
27/03:50am 1.8 -7.4 1.5 98 0.1 ESE 39 57 21 31 - - 0.0
27/03:30am 1.8 -7.3 1.7 99 0.0 ESE 39 56 21 30 - - 0.0
27/03:01am 2.0 -7.6 1.3 95 0.3 ESE 41 61 22 33 - - 0.0
27/03:00am 2.0 -7.6 1.3 95 0.3 ESE 41 56 22 30 - - 0.0
27/02:30am 1.9 -9.1 0.7 92 0.5 ESE 48 69 26 37 - - 0.0
27/02:00am 2.1 -8.1 0.9 92 0.5 ESE 44 65 24 35 - - 0.0
27/01:30am 1.9 -8.3 1.2 95 0.3 ESE 44 65 24 35 - - 0.0
27/01:25am 2.0 -8.0 1.3 95 0.3 ESE 43 65 23 35 - - 0.0
27/01:00am 2.0 -8.1 1.3 95 0.3 ESE 44 61 24 33 - - 0.0
27/12:30am 2.0 -8.6 1.0 93 0.4 E 46 70 25 38 - - 0.0
27/12:00am 2.0 -10.5 1.0 93 0.4 E 56 76 30 41 - - 0.0
 
Date/Time
EST
Temp
°C
App
Temp
°C
Dew
Point
Rel
Hum
%
Delta-T
°C
Wind Press
QNH
hPa
Press
MSL
hPa
Rain
since 9 am
mm
Dir
 
Spd
km/h
Gust
km/h
Spd
kts
Gust
kts
26/11:33pm 2.3 -11.0 1.6 95 0.3 E 61 80 33 43 - - 0.0
26/11:30pm 2.3 -11.4 1.6 95 0.3 E 63 80 34 43 - - 0.0
26/11:00pm 2.6 -9.4 1.4 92 0.5 E 54 76 29 41 - - 0.0
26/10:30pm 2.9 -9.5 2.8 99 0.0 E 57 78 31 42 - - 0.0
26/10:00pm 3.1 -9.0 3.0 99 0.0 ESE 56 76 30 41 - - 0.0
26/09:30pm 3.0 -7.6 2.9 99 0.0 ESE 48 69 26 37 - - 0.0
26/09:00pm 3.1 -8.3 3.0 99 0.0 E 52 72 28 39 - - 0.0
26/08:30pm 3.3 -8.5 2.7 96 0.3 ESE 54 74 29 40 - - 0.0
26/08:00pm 3.7 -6.4 3.6 99 0.0 ESE 46 69 25 37 - - 0.0
26/07:30pm 3.6 -6.5 3.5 99 0.0 E 46 67 25 36 - - 0.0
26/07:04pm 3.9 -4.1 3.8 99 0.0 ESE 35 54 19 29 - - 0.0
26/07:00pm 4.0 -4.0 3.7 98 0.1 ESE 35 52 19 28 - - 0.0
26/06:30pm 4.0 -3.6 3.9 99 0.0 ESE 33 46 18 25 - - 0.0
26/06:13pm 4.0 -3.6 3.9 99 0.0 E 33 52 18 28 - - 0.0
26/06:00pm 4.0 -3.0 3.9 99 0.0 E 30 44 16 24 - - 0.0
26/05:30pm 4.3 -1.5 4.2 99 0.0 ESE 24 39 13 21 - - 0.0
26/05:17pm 4.4 -2.9 4.3 99 0.0 E 32 50 17 27 - - 0.0
26/05:00pm 4.8 -3.5 4.4 97 0.2 E 37 50 20 27 - - 0.0
26/04:47pm 5.1 -1.5 4.4 95 0.3 E 28 46 15 25 - - 0.0
26/04:30pm 5.2 -0.6 4.6 96 0.3 E 24 43 13 23 - - 0.0
26/04:08pm 5.2 -2.3 3.7 90 0.7 E 32 50 17 27 - - 0.0
26/04:00pm 5.3 -1.8 3.8 90 0.7 E 30 44 16 24 - - 0.0
26/03:38pm 5.7 -1.6 4.5 92 0.6 E 32 50 17 27 - - 0.0
26/03:30pm 5.3 -2.6 4.3 93 0.5 E 35 50 19 27 - - 0.0
26/03:13pm 5.0 -2.3 4.6 97 0.2 E 32 54 17 29 - - 0.0
26/03:00pm 5.0 -1.6 4.4 96 0.3 E 28 39 15 21 - - 0.0
26/02:31pm 5.1 -1.5 4.2 94 0.4 E 28 46 15 25 - - 0.0
26/02:30pm 5.1 -1.9 4.1 93 0.5 E 30 46 16 25 - - 0.0
26/02:04pm 4.8 -1.8 4.1 95 0.3 E 28 52 15 28 - - 0.0
26/02:00pm 4.7 -1.1 4.4 98 0.1 E 24 37 13 20 - - 0.0
26/01:34pm 4.6 -2.9 4.2 97 0.2 E 33 52 18 28 - - 0.0
26/01:30pm 4.5 -3.8 4.1 97 0.2 E 37 52 20 28 - - 0.0
26/01:16pm 4.5 -2.9 4.1 97 0.2 E 32 50 17 27 - - 0.0
26/01:00pm 4.5 -2.9 4.1 97 0.2 E 32 48 17 26 - - 0.0
26/12:30pm 4.5 -3.1 3.8 95 0.3 E 33 56 18 30 - - 0.0
26/12:00pm 4.3 -3.7 3.6 95 0.3 ESE 35 54 19 29 - - 0.0
26/11:30am 4.2 -4.3 3.2 93 0.5 E 37 65 20 35 - - 0.0
26/11:00am 3.9 -5.4 3.0 94 0.4 ESE 41 59 22 32 - - 0.0
26/10:54am 3.8 -5.1 2.8 93 0.4 ESE 39 59 21 32 - - 0.0
26/10:30am 3.8 -4.9 2.3 90 0.7 ESE 37 54 20 29 - - 0.0
26/10:00am 3.6 -6.8 2.0 89 0.7 ESE 46 70 25 38 - - 0.0
26/09:30am 3.3 -6.0 3.2 99 0.0 E 41 69 22 37 - - 0.0
26/09:00am 3.5 -6.2 2.9 96 0.3 E 43 69 23 37 - - 1.0
26/08:30am 3.5 -7.5 2.8 95 0.3 E 50 74 27 40 - - 1.0
26/08:00am 3.4 -7.6 3.0 97 0.2 E 50 80 27 43 - - 1.0
26/07:36am 3.2 -6.1 3.1 99 0.0 E 41 69 22 37 - - 1.0
26/07:30am 3.1 -6.2 3.0 99 0.0 E 41 56 22 30 - - 1.0
26/07:00am 3.0 -5.9 2.9 99 0.0 E 39 61 21 33 - - 1.0
26/06:37am 3.3 -4.2 3.2 99 0.0 ESE 32 50 17 27 - - 1.0
26/06:30am 3.3 -3.5 3.2 99 0.0 ESE 28 43 15 23 - - 1.0
26/06:00am 3.3 -3.5 3.2 99 0.0 ESE 28 52 15 28 - - 1.0
26/05:37am 3.1 -4.5 3.0 99 0.0 ESE 32 52 17 28 - - 1.0
26/05:30am 3.0 -4.6 2.9 99 0.0 ESE 32 48 17 26 - - 1.0
26/05:00am 3.1 -5.8 3.0 99 0.0 ESE 39 65 21 35 - - 1.0
26/04:30am 3.0 -5.9 2.9 99 0.0 ESE 39 61 21 33 - - 1.0
26/04:00am 3.1 -6.6 3.0 99 0.0 ESE 43 61 23 33 - - 1.0
26/03:33am 3.1 -4.5 3.0 99 0.0 ESE 32 56 17 30 - - 1.0
26/03:30am 3.1 -4.7 3.0 99 0.0 ESE 33 48 18 26 - - 1.0
26/03:06am 3.1 -4.7 3.0 99 0.0 ESE 33 52 18 28 - - 1.0
26/03:00am 3.0 -4.8 2.9 99 0.0 ESE 33 46 18 25 - - 1.0
26/02:30am 2.9 -5.3 2.8 99 0.0 E 35 59 19 32 - - 1.0
26/02:00am 3.0 -5.2 2.9 99 0.0 E 35 56 19 30 - - 1.0
26/01:32am 2.7 -5.9 2.6 99 0.0 ESE 37 56 20 30 - - 1.0
26/01:30am 2.6 -6.0 2.5 99 0.0 ESE 37 54 20 29 - - 1.0
26/01:11am 2.5 -5.8 2.4 99 0.0 ESE 35 54 19 29 - - 1.0
26/01:00am 2.3 -6.0 2.2 99 0.0 ESE 35 48 19 26 - - 1.0
26/12:30am 2.2 -5.5 2.1 99 0.0 ESE 32 46 17 25 - - 1.0
26/12:00am 2.3 -5.6 2.2 99 0.0 E 33 46 18 25 - - 0.8
 
Date/Time
EST
Temp
°C
App
Temp
°C
Dew
Point
Rel
Hum
%
Delta-T
°C
Wind Press
QNH
hPa
Press
MSL
hPa
Rain
since 9 am
mm
Dir
 
Spd
km/h
Gust
km/h
Spd
kts
Gust
kts
25/11:46pm 2.5 -5.8 2.4 99 0.0 ESE 35 61 19 33 - - 0.8
25/11:30pm 2.2 -5.7 2.1 99 0.0 ESE 33 44 18 24 - - 0.8
25/11:22pm 2.2 -6.1 2.1 99 0.0 ESE 35 54 19 29 - - 0.8
25/11:00pm 2.0 -7.1 1.9 99 0.0 ESE 39 54 21 29 - - 0.8
25/10:46pm 2.0 -6.0 1.9 99 0.0 ESE 33 56 18 30 - - 0.8
25/10:30pm 1.8 -6.0 1.7 99 0.0 ESE 32 44 17 24 - - 0.8
25/10:00pm 1.4 -6.7 1.3 99 0.0 ESE 33 46 18 25 - - 0.8
25/09:30pm 1.4 -6.1 1.3 99 0.0 ESE 30 43 16 23 - - 0.6
25/09:04pm 1.8 -6.0 1.7 99 0.0 ESE 32 50 17 27 - - 0.6
25/09:00pm 2.0 -6.3 1.9 99 0.0 ESE 35 50 19 27 - - 0.4
25/08:30pm 2.6 -5.6 2.5 99 0.0 ESE 35 46 19 25 - - 0.2
25/08:00pm 2.8 -5.5 2.4 97 0.2 E 35 52 19 28 - - 0.2
25/07:30pm 3.0 -5.9 2.9 99 0.0 ESE 39 57 21 31 - - 0.2
25/07:27pm 3.1 -5.8 3.0 99 0.0 ESE 39 57 21 31 - - 0.2

Other Formats:

Comma delimited format used in spreadsheet applications
http://www.bom.gov.au/fwo/IDN60801/IDN60801.95916.axf

JavaScript Object Notation format (JSON) in row-major order
http://www.bom.gov.au/fwo/IDN60801/IDN60801.95916.json